Time,TemperatureF,DewpointF,PressureIn,WindDirection,WindDirectionDegrees,WindSpeedMPH,WindSpeedGustMPH,Humidity,HourlyPrecipIn,Conditions,Clouds,dailyrainin,SolarRadiationWatts/m^2,SoftwareType,DateUTC
2013-01-25 00:11:00,24.0,22.0,-100.00,NNW,327,0.0,0.0,93,0.00,,,0.01,0.000000,,2013-01-25 08:11:00,
2013-01-25 00:21:00,24.0,22.0,-100.00,NNW,327,0.0,0.0,93,0.00,,,0.01,0.000000,,2013-01-25 08:21:00,
2013-01-25 00:32:00,24.0,22.0,-100.00,NNW,327,0.0,0.0,93,0.00,,,0.01,0.000000,,2013-01-25 08:32:00,
2013-01-25 00:41:00,24.0,22.0,-100.00,NNW,327,0.0,0.0,93,0.00,,,0.01,0.000000,,2013-01-25 08:41:00,
2013-01-25 01:11:00,24.0,22.0,-100.00,NNW,329,0.0,0.0,93,0.00,,,0.01,0.000000,,2013-01-25 09:11:00,
2013-01-25 01:21:00,24.0,22.0,-100.00,NNW,329,0.0,0.0,93,0.00,,,0.01,0.000000,,2013-01-25 09:21:00,
2013-01-25 01:31:00,24.0,22.0,-100.00,NNW,329,0.0,0.0,93,0.00,,,0.01,0.000000,,2013-01-25 09:31:00,
2013-01-25 01:41:00,24.0,22.0,-100.00,NNW,329,0.0,0.0,93,0.00,,,0.01,0.000000,,2013-01-25 09:41:00,
2013-01-25 02:12:00,25.0,23.0,-100.00,NNW,327,0.0,0.0,93,0.00,,,0.01,0.000000,,2013-01-25 10:12:00,
2013-01-25 02:21:00,25.0,23.0,-100.00,NNW,327,0.0,0.0,93,0.00,,,0.01,0.000000,,2013-01-25 10:21:00,
2013-01-25 02:31:00,25.0,23.0,-100.00,NNW,327,0.0,0.0,93,0.00,,,0.01,0.000000,,2013-01-25 10:31:00,
2013-01-25 02:41:00,25.0,23.0,-100.00,NNW,327,0.0,0.0,93,0.00,,,0.01,0.000000,,2013-01-25 10:41:00,
2013-01-25 03:11:00,25.0,23.0,-100.00,West,278,0.0,0.0,93,0.00,,,0.01,0.000000,,2013-01-25 11:11:00,
2013-01-25 03:22:00,25.0,23.0,-100.00,West,278,0.0,0.0,93,0.00,,,0.01,0.000000,,2013-01-25 11:22:00,
2013-01-25 03:32:00,25.0,23.0,-100.00,West,278,0.0,0.0,93,0.00,,,0.01,0.000000,,2013-01-25 11:32:00,
2013-01-25 03:42:00,25.0,23.0,-100.00,West,278,0.0,0.0,93,0.00,,,0.01,0.000000,,2013-01-25 11:42:00,
2013-01-25 04:11:00,24.0,22.0,-100.00,NW,306,0.0,0.0,93,0.00,,,0.01,0.000000,,2013-01-25 12:11:00,
2013-01-25 04:22:00,24.0,22.0,-100.00,NW,306,0.0,0.0,93,0.00,,,0.01,0.000000,,2013-01-25 12:22:00,
2013-01-25 04:32:00,24.0,22.0,-100.00,NW,306,0.0,0.0,93,0.00,,,0.01,0.000000,,2013-01-25 12:32:00,
2013-01-25 04:41:00,24.0,22.0,-100.00,NW,306,0.0,0.0,93,0.00,,,0.01,0.000000,,2013-01-25 12:41:00,
2013-01-25 05:11:00,25.0,23.0,-100.00,NW,317,0.0,0.0,93,0.00,,,0.01,0.000000,,2013-01-25 13:11:00,
2013-01-25 05:22:00,25.0,23.0,-100.00,NW,317,0.0,0.0,93,0.00,,,0.01,0.000000,,2013-01-25 13:22:00,
2013-01-25 05:32:00,25.0,23.0,-100.00,NW,317,0.0,0.0,93,0.00,,,0.01,0.000000,,2013-01-25 13:32:00,
2013-01-25 05:42:00,25.0,23.0,-100.00,NW,317,0.0,0.0,93,0.00,,,0.01,0.000000,,2013-01-25 13:42:00,
2013-01-25 06:12:00,25.0,23.0,-100.00,West,280,0.0,0.0,93,0.00,,,0.01,0.000000,,2013-01-25 14:12:00,
2013-01-25 06:22:00,25.0,23.0,-100.00,West,280,0.0,0.0,93,0.00,,,0.01,0.000000,,2013-01-25 14:22:00,
2013-01-25 06:32:00,25.0,23.0,-100.00,West,280,0.0,0.0,93,0.00,,,0.01,0.000000,,2013-01-25 14:32:00,
2013-01-25 06:41:00,25.0,23.0,-100.00,West,280,0.0,0.0,93,0.00,,,0.01,0.000000,,2013-01-25 14:41:00,
2013-01-25 07:12:00,24.0,22.0,-100.00,NW,307,0.0,0.0,93,0.00,,,0.01,0.000000,,2013-01-25 15:12:00,
2013-01-25 07:22:00,24.0,22.0,-100.00,NW,307,0.0,0.0,93,0.00,,,0.01,0.000000,,2013-01-25 15:22:00,
2013-01-25 07:32:00,24.0,22.0,-100.00,NW,307,0.0,0.0,93,0.00,,,0.01,0.000000,,2013-01-25 15:32:00,
2013-01-25 07:42:00,24.0,22.0,-100.00,NW,307,0.0,0.0,93,0.00,,,0.01,0.000000,,2013-01-25 15:42:00,
2013-01-25 08:12:00,25.0,23.0,-100.00,NNW,348,0.0,0.0,93,0.00,,,0.01,0.000000,,2013-01-25 16:12:00,
2013-01-25 08:22:00,25.0,23.0,-100.00,NNW,348,0.0,0.0,93,0.00,,,0.01,0.000000,,2013-01-25 16:22:00,
2013-01-25 08:32:00,25.0,23.0,-100.00,NNW,348,0.0,0.0,93,0.00,,,0.01,0.000000,,2013-01-25 16:32:00,
2013-01-25 08:42:00,25.0,23.0,-100.00,NNW,348,0.0,0.0,93,0.00,,,0.01,0.000000,,2013-01-25 16:42:00,
2013-01-25 09:12:00,25.0,23.0,-100.00,NNW,327,0.0,0.0,93,0.00,,,0.01,0.000000,,2013-01-25 17:12:00,
2013-01-25 09:22:00,25.0,23.0,-100.00,NNW,327,0.0,0.0,93,0.00,,,0.01,0.000000,,2013-01-25 17:22:00,
2013-01-25 09:32:00,25.0,23.0,-100.00,NNW,327,0.0,0.0,93,0.00,,,0.01,0.000000,,2013-01-25 17:32:00,
2013-01-25 09:42:00,25.0,23.0,-100.00,NNW,327,0.0,0.0,93,0.00,,,0.01,0.000000,,2013-01-25 17:42:00,
2013-01-25 10:02:00,25.0,23.0,-100.00,NW,311,0.0,0.0,93,0.00,,,0.01,11.000000,,2013-01-25 18:02:00,
2013-01-25 10:11:00,25.0,23.0,-100.00,NW,311,0.0,0.0,93,0.00,,,0.01,11.000000,,2013-01-25 18:11:00,
2013-01-25 10:23:00,25.0,23.0,-100.00,NW,311,0.0,0.0,93,0.00,,,0.01,11.000000,,2013-01-25 18:23:00,
2013-01-25 10:32:00,25.0,23.0,-100.00,NW,311,0.0,0.0,93,0.00,,,0.01,11.000000,,2013-01-25 18:32:00,
2013-01-25 10:42:00,25.0,23.0,-100.00,NW,311,0.0,0.0,93,0.00,,,0.01,11.000000,,2013-01-25 18:42:00,
2013-01-25 11:02:00,28.0,26.0,-100.00,NNW,337,0.0,0.0,93,0.00,,,0.01,66.000000,,2013-01-25 19:02:00,
2013-01-25 11:12:00,28.0,26.0,-100.00,NNW,337,0.0,0.0,93,0.00,,,0.01,66.000000,,2013-01-25 19:12:00,
2013-01-25 11:22:00,28.0,26.0,-100.00,NNW,337,0.0,0.0,93,0.00,,,0.01,66.000000,,2013-01-25 19:22:00,
2013-01-25 11:32:00,28.0,26.0,-100.00,NNW,337,0.0,0.0,93,0.00,,,0.01,66.000000,,2013-01-25 19:32:00,
2013-01-25 11:42:00,28.0,26.0,-100.00,NNW,337,0.0,0.0,93,0.00,,,0.01,66.000000,,2013-01-25 19:42:00,
2013-01-25 12:12:00,29.0,27.0,-100.00,North,7,0.0,0.0,91,0.01,,,0.02,91.000000,,2013-01-25 20:12:00,
2013-01-25 12:22:00,29.0,27.0,-100.00,North,7,0.0,0.0,91,0.01,,,0.02,91.000000,,2013-01-25 20:22:00,
2013-01-25 12:32:00,29.0,27.0,-100.00,North,7,0.0,0.0,91,0.01,,,0.02,91.000000,,2013-01-25 20:32:00,
2013-01-25 12:42:00,29.0,27.0,-100.00,North,7,0.0,0.0,91,0.01,,,0.02,91.000000,,2013-01-25 20:42:00,
2013-01-25 13:11:00,29.0,26.0,-100.00,ESE,103,0.0,3.0,88,0.00,,,0.02,219.000000,,2013-01-25 21:11:00,
2013-01-25 13:22:00,29.0,26.0,-100.00,ESE,103,0.0,3.0,88,0.00,,,0.02,219.000000,,2013-01-25 21:22:00,
2013-01-25 13:32:00,29.0,26.0,-100.00,ESE,103,0.0,3.0,88,0.00,,,0.02,219.000000,,2013-01-25 21:32:00,
2013-01-25 13:42:00,29.0,26.0,-100.00,ESE,103,0.0,3.0,88,0.00,,,0.02,219.000000,,2013-01-25 21:42:00,
2013-01-25 14:11:00,29.0,26.0,-100.00,NE,49,0.0,7.0,89,0.00,,,0.01,142.000000,,2013-01-25 22:11:00,
2013-01-25 14:22:00,29.0,26.0,-100.00,NE,49,0.0,7.0,89,0.00,,,0.01,142.000000,,2013-01-25 22:22:00,
2013-01-25 14:32:00,29.0,26.0,-100.00,NE,49,0.0,7.0,89,0.00,,,0.01,142.000000,,2013-01-25 22:32:00,
2013-01-25 14:42:00,29.0,26.0,-100.00,NE,49,0.0,7.0,89,0.00,,,0.01,142.000000,,2013-01-25 22:42:00,
2013-01-25 15:11:00,29.0,26.0,-100.00,NNW,337,1.0,5.0,89,0.00,,,0.01,122.000000,,2013-01-25 23:11:00,
2013-01-25 15:22:00,29.0,26.0,-100.00,NNW,337,1.0,5.0,89,0.00,,,0.01,122.000000,,2013-01-25 23:22:00,
2013-01-25 15:32:00,29.0,26.0,-100.00,NNW,337,1.0,5.0,89,0.00,,,0.01,122.000000,,2013-01-25 23:32:00,
2013-01-25 15:42:00,29.0,26.0,-100.00,NNW,337,1.0,5.0,89,0.00,,,0.01,122.000000,,2013-01-25 23:42:00,
2013-01-25 16:11:00,28.0,26.0,-100.00,NNE,23,1.0,6.0,91,0.00,,,0.01,58.000000,,2013-01-26 00:11:00,
2013-01-25 16:22:00,28.0,26.0,-100.00,NNE,23,1.0,6.0,91,0.00,,,0.01,58.000000,,2013-01-26 00:22:00,
2013-01-25 16:32:00,28.0,26.0,-100.00,NNE,23,1.0,6.0,91,0.00,,,0.01,58.000000,,2013-01-26 00:32:00,
2013-01-25 16:41:00,28.0,26.0,-100.00,NNE,23,1.0,6.0,91,0.00,,,0.01,58.000000,,2013-01-26 00:41:00,
2013-01-25 17:01:00,26.0,25.0,-100.00,NE,45,0.0,6.0,94,0.00,,,0.01,1.000000,,2013-01-26 01:01:00,
2013-01-25 17:11:00,26.0,25.0,-100.00,NE,45,0.0,6.0,94,0.00,,,0.01,1.000000,,2013-01-26 01:11:00,
2013-01-25 17:22:00,26.0,25.0,-100.00,NE,45,0.0,6.0,94,0.00,,,0.01,1.000000,,2013-01-26 01:22:00,
2013-01-25 17:31:00,26.0,25.0,-100.00,NE,45,0.0,6.0,94,0.00,,,0.01,1.000000,,2013-01-26 01:31:00,
2013-01-25 17:41:00,26.0,25.0,-100.00,NE,45,0.0,6.0,94,0.00,,,0.01,1.000000,,2013-01-26 01:41:00,
2013-01-25 18:11:00,26.0,25.0,-100.00,North,5,3.0,4.0,94,0.00,,,0.01,0.000000,,2013-01-26 02:11:00,
2013-01-25 18:22:00,26.0,25.0,-100.00,North,5,3.0,4.0,94,0.00,,,0.01,0.000000,,2013-01-26 02:22:00,
2013-01-25 18:32:00,26.0,25.0,-100.00,North,5,3.0,4.0,94,0.00,,,0.01,0.000000,,2013-01-26 02:32:00,
2013-01-25 18:42:00,26.0,25.0,-100.00,North,5,3.0,4.0,94,0.00,,,0.01,0.000000,,2013-01-26 02:42:00,
2013-01-25 19:11:00,25.0,24.0,-100.00,North,0,5.0,7.0,94,0.00,,,0.01,0.000000,,2013-01-26 03:11:00,
2013-01-25 19:21:00,25.0,24.0,-100.00,North,0,5.0,7.0,94,0.00,,,0.01,0.000000,,2013-01-26 03:21:00,
2013-01-25 19:31:00,25.0,24.0,-100.00,North,0,5.0,7.0,94,0.00,,,0.01,0.000000,,2013-01-26 03:31:00,
2013-01-25 19:42:00,25.0,24.0,-100.00,North,0,5.0,7.0,94,0.00,,,0.01,0.000000,,2013-01-26 03:42:00,
2013-01-25 20:12:00,20.0,19.0,-100.00,NNW,341,5.0,7.0,94,0.00,,,0.01,0.000000,,2013-01-26 04:12:00,
2013-01-25 20:21:00,20.0,19.0,-100.00,NNW,341,5.0,7.0,94,0.00,,,0.01,0.000000,,2013-01-26 04:21:00,
2013-01-25 20:32:00,20.0,19.0,-100.00,NNW,341,5.0,7.0,94,0.00,,,0.01,0.000000,,2013-01-26 04:32:00,
2013-01-25 20:42:00,20.0,19.0,-100.00,NNW,341,5.0,7.0,94,0.00,,,0.01,0.000000,,2013-01-26 04:42:00,
2013-01-25 21:12:00,24.0,23.0,-100.00,North,10,4.0,8.0,94,0.00,,,0.01,0.000000,,2013-01-26 05:12:00,
2013-01-25 21:23:00,24.0,23.0,-100.00,North,10,4.0,8.0,94,0.00,,,0.01,0.000000,,2013-01-26 05:23:00,
2013-01-25 21:33:00,24.0,23.0,-100.00,North,10,4.0,8.0,94,0.00,,,0.01,0.000000,,2013-01-26 05:33:00,
2013-01-25 21:41:00,24.0,23.0,-100.00,North,10,4.0,8.0,94,0.00,,,0.01,0.000000,,2013-01-26 05:41:00,
2013-01-25 22:12:00,25.0,24.0,-100.00,NNE,27,1.0,9.0,94,0.00,,,0.01,0.000000,,2013-01-26 06:12:00,
2013-01-25 22:21:00,25.0,24.0,-100.00,NNE,27,1.0,9.0,94,0.00,,,0.01,0.000000,,2013-01-26 06:21:00,
2013-01-25 22:31:00,25.0,24.0,-100.00,NNE,27,1.0,9.0,94,0.00,,,0.01,0.000000,,2013-01-26 06:31:00,
2013-01-25 22:41:00,25.0,24.0,-100.00,NNE,27,1.0,9.0,94,0.00,,,0.01,0.000000,,2013-01-26 06:41:00,
2013-01-25 23:12:00,26.0,24.0,-100.00,NW,307,0.0,6.0,93,0.00,,,0.01,0.000000,,2013-01-26 07:12:00,
2013-01-25 23:21:00,26.0,24.0,-100.00,NW,307,0.0,6.0,93,0.00,,,0.01,0.000000,,2013-01-26 07:21:00,
2013-01-25 23:33:00,26.0,24.0,-100.00,NW,307,0.0,6.0,93,0.00,,,0.01,0.000000,,2013-01-26 07:33:00,
2013-01-25 23:41:00,26.0,24.0,-100.00,NW,307,0.0,6.0,93,0.00,,,0.01,0.000000,,2013-01-26 07:41:00,